sensor_id;sensor_type;location;lat;lon;timestamp;P1;durP1;ratioP1;P2;durP2;ratioP2
56860;SDS011;42744;51.094;3.490;2022-08-04T00:00:28;7.20;;;2.65;;
56860;SDS011;42744;51.094;3.490;2022-08-04T00:10:55;8.13;;;4.18;;
56860;SDS011;42744;51.094;3.490;2022-08-04T00:13:25;5.85;;;3.45;;
56860;SDS011;42744;51.094;3.490;2022-08-04T00:15:53;7.37;;;3.50;;
56860;SDS011;42744;51.094;3.490;2022-08-04T00:18:34;5.00;;;2.95;;
56860;SDS011;42744;51.094;3.490;2022-08-04T00:21:11;4.85;;;3.25;;
56860;SDS011;42744;51.094;3.490;2022-08-04T00:23:42;7.60;;;3.43;;
56860;SDS011;42744;51.094;3.490;2022-08-04T00:26:09;6.57;;;3.13;;
56860;SDS011;42744;51.094;3.490;2022-08-04T00:28:36;5.28;;;2.83;;
56860;SDS011;42744;51.094;3.490;2022-08-04T00:31:03;4.82;;;2.83;;
56860;SDS011;42744;51.094;3.490;2022-08-04T00:33:30;5.47;;;2.83;;
56860;SDS011;42744;51.094;3.490;2022-08-04T00:35:56;5.70;;;2.87;;
56860;SDS011;42744;51.094;3.490;2022-08-04T00:38:25;9.93;;;3.20;;
56860;SDS011;42744;51.094;3.490;2022-08-04T00:47:09;7.60;;;3.73;;
56860;SDS011;42744;51.094;3.490;2022-08-04T00:49:52;7.27;;;3.70;;
56860;SDS011;42744;51.094;3.490;2022-08-04T00:55:10;6.33;;;3.23;;
56860;SDS011;42744;51.094;3.490;2022-08-04T00:57:52;5.07;;;3.40;;
56860;SDS011;42744;51.094;3.490;2022-08-04T01:00:28;4.57;;;3.60;;
56860;SDS011;42744;51.094;3.490;2022-08-04T01:19:54;5.83;;;3.40;;
56860;SDS011;42744;51.094;3.490;2022-08-04T01:25:02;5.93;;;3.53;;
56860;SDS011;42744;51.094;3.490;2022-08-04T01:30:52;5.67;;;2.97;;
56860;SDS011;42744;51.094;3.490;2022-08-04T01:33:22;6.63;;;3.23;;
56860;SDS011;42744;51.094;3.490;2022-08-04T01:35:54;7.83;;;3.10;;
56860;SDS011;42744;51.094;3.490;2022-08-04T01:38:49;5.53;;;3.00;;
56860;SDS011;42744;51.094;3.490;2022-08-04T01:41:14;5.63;;;2.50;;
56860;SDS011;42744;51.094;3.490;2022-08-04T01:43:45;7.03;;;2.63;;
56860;SDS011;42744;51.094;3.490;2022-08-04T01:46:12;7.50;;;2.70;;
56860;SDS011;42744;51.094;3.490;2022-08-04T01:48:39;6.53;;;2.60;;
56860;SDS011;42744;51.094;3.490;2022-08-04T01:51:09;5.90;;;2.65;;
56860;SDS011;42744;51.094;3.490;2022-08-04T01:53:36;6.43;;;2.70;;
56860;SDS011;42744;51.094;3.490;2022-08-04T01:56:05;5.20;;;2.33;;
56860;SDS011;42744;51.094;3.490;2022-08-04T01:58:36;7.47;;;2.37;;
56860;SDS011;42744;51.094;3.490;2022-08-04T02:01:08;7.83;;;2.30;;
56860;SDS011;42744;51.094;3.490;2022-08-04T02:03:37;6.53;;;2.13;;
56860;SDS011;42744;51.094;3.490;2022-08-04T02:11:35;4.30;;;2.30;;
56860;SDS011;42744;51.094;3.490;2022-08-04T02:21:56;7.03;;;3.67;;
56860;SDS011;42744;51.094;3.490;2022-08-04T02:24:27;5.27;;;2.67;;
56860;SDS011;42744;51.094;3.490;2022-08-04T02:26:56;4.93;;;3.10;;
56860;SDS011;42744;51.094;3.490;2022-08-04T02:29:25;9.97;;;3.50;;
56860;SDS011;42744;51.094;3.490;2022-08-04T02:32:04;7.77;;;3.37;;
56860;SDS011;42744;51.094;3.490;2022-08-04T02:34:44;5.40;;;3.20;;
56860;SDS011;42744;51.094;3.490;2022-08-04T02:37:17;5.73;;;3.30;;
56860;SDS011;42744;51.094;3.490;2022-08-04T02:39:49;8.13;;;3.17;;
56860;SDS011;42744;51.094;3.490;2022-08-04T02:42:18;11.40;;;3.30;;
56860;SDS011;42744;51.094;3.490;2022-08-04T02:44:50;5.10;;;3.53;;
56860;SDS011;42744;51.094;3.490;2022-08-04T02:47:17;8.13;;;2.90;;
56860;SDS011;42744;51.094;3.490;2022-08-04T02:49:49;7.70;;;3.40;;
56860;SDS011;42744;51.094;3.490;2022-08-04T02:52:16;7.40;;;3.37;;
56860;SDS011;42744;51.094;3.490;2022-08-04T02:54:44;9.30;;;3.17;;
56860;SDS011;42744;51.094;3.490;2022-08-04T02:57:13;4.90;;;2.83;;
56860;SDS011;42744;51.094;3.490;2022-08-04T03:30:03;5.93;;;2.40;;
56860;SDS011;42744;51.094;3.490;2022-08-04T03:55:39;9.07;;;3.53;;
56860;SDS011;42744;51.094;3.490;2022-08-04T03:58:30;9.57;;;3.00;;
56860;SDS011;42744;51.094;3.490;2022-08-04T04:07:15;16.77;;;7.30;;
56860;SDS011;42744;51.094;3.490;2022-08-04T04:15:53;18.80;;;9.00;;
56860;SDS011;42744;51.094;3.490;2022-08-04T04:19:00;19.87;;;9.97;;
56860;SDS011;42744;51.094;3.490;2022-08-04T04:26:58;29.23;;;13.33;;
56860;SDS011;42744;51.094;3.490;2022-08-04T04:32:48;33.63;;;14.23;;
56860;SDS011;42744;51.094;3.490;2022-08-04T04:54:59;32.03;;;15.27;;
56860;SDS011;42744;51.094;3.490;2022-08-04T04:57:35;27.27;;;15.40;;
56860;SDS011;42744;51.094;3.490;2022-08-04T05:00:08;23.27;;;14.27;;
56860;SDS011;42744;51.094;3.490;2022-08-04T05:02:50;21.53;;;12.70;;
56860;SDS011;42744;51.094;3.490;2022-08-04T05:05:45;19.53;;;11.93;;
56860;SDS011;42744;51.094;3.490;2022-08-04T05:14:07;17.30;;;10.87;;
56860;SDS011;42744;51.094;3.490;2022-08-04T05:17:01;14.63;;;11.13;;
56860;SDS011;42744;51.094;3.490;2022-08-04T05:19:38;17.50;;;10.93;;
56860;SDS011;42744;51.094;3.490;2022-08-04T05:24:59;18.80;;;11.47;;
56860;SDS011;42744;51.094;3.490;2022-08-04T05:27:31;16.60;;;10.17;;
56860;SDS011;42744;51.094;3.490;2022-08-04T05:30:03;14.33;;;10.40;;
56860;SDS011;42744;51.094;3.490;2022-08-04T05:32:40;14.53;;;10.67;;
56860;SDS011;42744;51.094;3.490;2022-08-04T05:35:26;13.20;;;9.60;;
56860;SDS011;42744;51.094;3.490;2022-08-04T05:37:56;13.13;;;8.77;;
56860;SDS011;42744;51.094;3.490;2022-08-04T05:40:27;13.27;;;10.20;;
56860;SDS011;42744;51.094;3.490;2022-08-04T05:42:56;13.07;;;9.30;;
56860;SDS011;42744;51.094;3.490;2022-08-04T05:45:25;11.03;;;8.60;;
56860;SDS011;42744;51.094;3.490;2022-08-04T05:47:51;10.93;;;8.60;;
56860;SDS011;42744;51.094;3.490;2022-08-04T05:50:18;10.83;;;9.10;;
56860;SDS011;42744;51.094;3.490;2022-08-04T05:52:45;12.10;;;8.90;;
56860;SDS011;42744;51.094;3.490;2022-08-04T05:55:12;12.85;;;9.77;;
56860;SDS011;42744;51.094;3.490;2022-08-04T05:57:39;14.45;;;11.00;;
56860;SDS011;42744;51.094;3.490;2022-08-04T06:00:06;14.10;;;10.30;;
56860;SDS011;42744;51.094;3.490;2022-08-04T06:02:33;15.15;;;10.07;;
56860;SDS011;42744;51.094;3.490;2022-08-04T06:05:05;14.07;;;9.57;;
56860;SDS011;42744;51.094;3.490;2022-08-04T06:07:32;13.33;;;9.77;;
56860;SDS011;42744;51.094;3.490;2022-08-04T06:09:58;12.63;;;9.55;;
56860;SDS011;42744;51.094;3.490;2022-08-04T06:12:39;13.07;;;9.93;;
56860;SDS011;42744;51.094;3.490;2022-08-04T06:15:14;13.90;;;10.75;;
56860;SDS011;42744;51.094;3.490;2022-08-04T06:17:54;14.10;;;10.43;;
56860;SDS011;42744;51.094;3.490;2022-08-04T06:20:26;16.52;;;10.52;;
56860;SDS011;42744;51.094;3.490;2022-08-04T06:22:56;12.50;;;9.82;;
56860;SDS011;42744;51.094;3.490;2022-08-04T06:25:32;12.27;;;9.23;;
56860;SDS011;42744;51.094;3.490;2022-08-04T06:28:06;10.95;;;7.78;;
56860;SDS011;42744;51.094;3.490;2022-08-04T06:30:33;8.75;;;7.35;;
56860;SDS011;42744;51.094;3.490;2022-08-04T06:33:01;10.90;;;6.97;;
56860;SDS011;42744;51.094;3.490;2022-08-04T06:35:38;11.23;;;8.15;;
56860;SDS011;42744;51.094;3.490;2022-08-04T06:38:05;10.25;;;7.43;;
56860;SDS011;42744;51.094;3.490;2022-08-04T06:40:32;8.52;;;6.97;;
56860;SDS011;42744;51.094;3.490;2022-08-04T06:43:00;10.30;;;7.00;;
56860;SDS011;42744;51.094;3.490;2022-08-04T06:45:27;10.23;;;7.25;;
56860;SDS011;42744;51.094;3.490;2022-08-04T06:47:54;11.35;;;7.20;;
56860;SDS011;42744;51.094;3.490;2022-08-04T06:50:22;8.18;;;6.35;;
56860;SDS011;42744;51.094;3.490;2022-08-04T06:52:48;7.97;;;6.32;;
56860;SDS011;42744;51.094;3.490;2022-08-04T06:55:14;7.57;;;6.12;;
56860;SDS011;42744;51.094;3.490;2022-08-04T06:57:41;9.52;;;7.28;;
56860;SDS011;42744;51.094;3.490;2022-08-04T07:00:10;8.40;;;6.03;;
56860;SDS011;42744;51.094;3.490;2022-08-04T07:02:45;11.02;;;6.60;;
56860;SDS011;42744;51.094;3.490;2022-08-04T07:05:14;8.40;;;6.90;;
56860;SDS011;42744;51.094;3.490;2022-08-04T07:07:42;8.77;;;6.47;;
56860;SDS011;42744;51.094;3.490;2022-08-04T07:10:09;8.82;;;5.65;;
56860;SDS011;42744;51.094;3.490;2022-08-04T07:12:37;7.35;;;5.62;;
56860;SDS011;42744;51.094;3.490;2022-08-04T07:15:05;7.90;;;5.65;;
56860;SDS011;42744;51.094;3.490;2022-08-04T07:17:32;10.15;;;6.20;;
56860;SDS011;42744;51.094;3.490;2022-08-04T07:20:00;5.95;;;4.97;;
56860;SDS011;42744;51.094;3.490;2022-08-04T07:22:28;8.00;;;6.03;;
56860;SDS011;42744;51.094;3.490;2022-08-04T07:24:55;12.93;;;8.95;;
56860;SDS011;42744;51.094;3.490;2022-08-04T07:27:22;26.45;;;20.92;;
56860;SDS011;42744;51.094;3.490;2022-08-04T07:29:49;36.97;;;27.25;;
56860;SDS011;42744;51.094;3.490;2022-08-04T07:32:15;32.67;;;24.65;;
56860;SDS011;42744;51.094;3.490;2022-08-04T07:34:45;24.40;;;18.83;;
56860;SDS011;42744;51.094;3.490;2022-08-04T07:37:12;17.75;;;15.77;;
56860;SDS011;42744;51.094;3.490;2022-08-04T07:39:39;13.40;;;9.13;;
56860;SDS011;42744;51.094;3.490;2022-08-04T07:42:05;9.13;;;8.15;;
56860;SDS011;42744;51.094;3.490;2022-08-04T07:44:32;7.12;;;5.87;;
56860;SDS011;42744;51.094;3.490;2022-08-04T07:47:00;9.55;;;6.25;;
56860;SDS011;42744;51.094;3.490;2022-08-04T07:49:28;8.30;;;7.50;;
56860;SDS011;42744;51.094;3.490;2022-08-04T07:51:54;6.85;;;6.20;;
56860;SDS011;42744;51.094;3.490;2022-08-04T07:54:20;8.30;;;5.87;;
56860;SDS011;42744;51.094;3.490;2022-08-04T07:56:47;9.20;;;6.37;;
56860;SDS011;42744;51.094;3.490;2022-08-04T07:59:14;9.05;;;6.30;;
56860;SDS011;42744;51.094;3.490;2022-08-04T08:01:41;8.15;;;5.80;;
56860;SDS011;42744;51.094;3.490;2022-08-04T08:04:08;6.57;;;5.28;;
56860;SDS011;42744;51.094;3.490;2022-08-04T08:06:36;9.20;;;5.37;;
56860;SDS011;42744;51.094;3.490;2022-08-04T08:09:22;9.68;;;5.82;;
56860;SDS011;42744;51.094;3.490;2022-08-04T08:11:50;5.75;;;4.28;;
56860;SDS011;42744;51.094;3.490;2022-08-04T08:14:17;4.90;;;3.28;;
56860;SDS011;42744;51.094;3.490;2022-08-04T08:16:44;6.07;;;4.18;;
56860;SDS011;42744;51.094;3.490;2022-08-04T08:19:11;5.87;;;4.55;;
56860;SDS011;42744;51.094;3.490;2022-08-04T08:21:38;8.40;;;4.40;;
56860;SDS011;42744;51.094;3.490;2022-08-04T08:24:04;8.25;;;5.00;;
56860;SDS011;42744;51.094;3.490;2022-08-04T08:26:31;6.80;;;5.22;;
56860;SDS011;42744;51.094;3.490;2022-08-04T08:28:57;5.00;;;4.22;;
56860;SDS011;42744;51.094;3.490;2022-08-04T08:31:23;7.47;;;4.45;;
56860;SDS011;42744;51.094;3.490;2022-08-04T08:33:50;4.95;;;3.97;;
56860;SDS011;42744;51.094;3.490;2022-08-04T08:39:06;7.60;;;4.05;;
56860;SDS011;42744;51.094;3.490;2022-08-04T08:47:24;3.92;;;3.35;;
56860;SDS011;42744;51.094;3.490;2022-08-04T09:12:35;3.55;;;2.70;;
56860;SDS011;42744;51.094;3.490;2022-08-04T09:15:32;6.75;;;2.92;;
56860;SDS011;42744;51.094;3.490;2022-08-04T09:18:08;3.37;;;3.08;;
56860;SDS011;42744;51.094;3.490;2022-08-04T09:23:51;7.72;;;3.20;;
56860;SDS011;42744;51.094;3.490;2022-08-04T09:26:43;5.72;;;2.78;;
56860;SDS011;42744;51.094;3.490;2022-08-04T09:37:37;3.17;;;1.83;;
56860;SDS011;42744;51.094;3.490;2022-08-04T09:46:01;4.57;;;2.10;;
56860;SDS011;42744;51.094;3.490;2022-08-04T09:48:38;3.28;;;2.00;;
56860;SDS011;42744;51.094;3.490;2022-08-04T09:51:19;2.95;;;1.50;;
56860;SDS011;42744;51.094;3.490;2022-08-04T09:59:57;7.10;;;2.35;;
56860;SDS011;42744;51.094;3.490;2022-08-04T10:02:38;3.60;;;1.70;;
56860;SDS011;42744;51.094;3.490;2022-08-04T10:05:19;3.78;;;1.67;;
56860;SDS011;42744;51.094;3.490;2022-08-04T10:10:58;2.95;;;1.80;;
56860;SDS011;42744;51.094;3.490;2022-08-04T10:19:26;5.35;;;1.60;;
56860;SDS011;42744;51.094;3.490;2022-08-04T10:27:16;5.78;;;1.62;;
56860;SDS011;42744;51.094;3.490;2022-08-04T10:29:50;4.97;;;1.67;;
56860;SDS011;42744;51.094;3.490;2022-08-04T10:32:24;2.47;;;1.60;;
56860;SDS011;42744;51.094;3.490;2022-08-04T10:34:58;2.72;;;1.80;;
56860;SDS011;42744;51.094;3.490;2022-08-04T10:37:42;4.10;;;1.80;;
56860;SDS011;42744;51.094;3.490;2022-08-04T10:40:43;3.67;;;1.50;;
56860;SDS011;42744;51.094;3.490;2022-08-04T10:45:48;4.03;;;1.40;;
56860;SDS011;42744;51.094;3.490;2022-08-04T10:51:29;2.65;;;1.65;;
56860;SDS011;42744;51.094;3.490;2022-08-04T10:57:07;4.37;;;1.70;;
56860;SDS011;42744;51.094;3.490;2022-08-04T10:59:46;3.75;;;1.70;;
56860;SDS011;42744;51.094;3.490;2022-08-04T11:02:33;3.92;;;1.90;;
56860;SDS011;42744;51.094;3.490;2022-08-04T11:05:19;4.25;;;1.73;;
56860;SDS011;42744;51.094;3.490;2022-08-04T11:07:51;2.70;;;1.55;;
56860;SDS011;42744;51.094;3.490;2022-08-04T11:10:24;3.58;;;1.60;;
56860;SDS011;42744;51.094;3.490;2022-08-04T11:12:55;2.55;;;1.58;;
56860;SDS011;42744;51.094;3.490;2022-08-04T11:15:32;5.45;;;2.62;;
56860;SDS011;42744;51.094;3.490;2022-08-04T11:18:05;6.55;;;2.00;;
56860;SDS011;42744;51.094;3.490;2022-08-04T11:20:42;3.40;;;2.10;;
56860;SDS011;42744;51.094;3.490;2022-08-04T11:23:16;6.35;;;2.37;;
56860;SDS011;42744;51.094;3.490;2022-08-04T11:32:19;4.12;;;1.85;;
56860;SDS011;42744;51.094;3.490;2022-08-04T11:34:51;4.60;;;1.42;;
56860;SDS011;42744;51.094;3.490;2022-08-04T11:39:52;5.47;;;1.55;;
56860;SDS011;42744;51.094;3.490;2022-08-04T11:42:25;6.45;;;2.20;;
56860;SDS011;42744;51.094;3.490;2022-08-04T11:45:00;7.35;;;2.37;;
56860;SDS011;42744;51.094;3.490;2022-08-04T11:53:03;7.30;;;1.75;;
56860;SDS011;42744;51.094;3.490;2022-08-04T11:55:31;5.43;;;1.60;;
56860;SDS011;42744;51.094;3.490;2022-08-04T11:57:58;4.82;;;1.58;;
56860;SDS011;42744;51.094;3.490;2022-08-04T12:00:26;7.30;;;1.87;;
56860;SDS011;42744;51.094;3.490;2022-08-04T12:17:00;4.55;;;1.90;;
56860;SDS011;42744;51.094;3.490;2022-08-04T12:19:33;6.10;;;2.15;;
56860;SDS011;42744;51.094;3.490;2022-08-04T12:22:15;6.28;;;2.08;;
56860;SDS011;42744;51.094;3.490;2022-08-04T12:27:28;3.37;;;1.67;;
56860;SDS011;42744;51.094;3.490;2022-08-04T12:29:58;3.78;;;1.70;;
56860;SDS011;42744;51.094;3.490;2022-08-04T12:40:39;2.78;;;1.83;;
56860;SDS011;42744;51.094;3.490;2022-08-04T12:45:54;4.00;;;2.20;;
56860;SDS011;42744;51.094;3.490;2022-08-04T12:48:22;4.03;;;1.80;;
56860;SDS011;42744;51.094;3.490;2022-08-04T12:50:51;7.47;;;2.15;;
56860;SDS011;42744;51.094;3.490;2022-08-04T12:53:19;4.80;;;1.83;;
56860;SDS011;42744;51.094;3.490;2022-08-04T12:55:50;4.85;;;1.85;;
56860;SDS011;42744;51.094;3.490;2022-08-04T12:58:19;4.57;;;2.08;;
56860;SDS011;42744;51.094;3.490;2022-08-04T13:15:15;7.62;;;2.28;;
56860;SDS011;42744;51.094;3.490;2022-08-04T13:20:12;3.70;;;1.80;;
56860;SDS011;42744;51.094;3.490;2022-08-04T13:22:38;3.62;;;1.87;;
56860;SDS011;42744;51.094;3.490;2022-08-04T13:25:05;3.55;;;1.98;;
56860;SDS011;42744;51.094;3.490;2022-08-04T13:27:31;3.03;;;1.50;;
56860;SDS011;42744;51.094;3.490;2022-08-04T13:30:02;4.10;;;1.58;;
56860;SDS011;42744;51.094;3.490;2022-08-04T13:32:28;4.75;;;1.42;;
56860;SDS011;42744;51.094;3.490;2022-08-04T13:34:56;4.72;;;1.75;;
56860;SDS011;42744;51.094;3.490;2022-08-04T13:37:25;6.53;;;1.83;;
56860;SDS011;42744;51.094;3.490;2022-08-04T13:39:57;4.97;;;1.70;;
56860;SDS011;42744;51.094;3.490;2022-08-04T13:42:26;5.37;;;1.90;;
56860;SDS011;42744;51.094;3.490;2022-08-04T13:44:57;5.97;;;1.60;;
56860;SDS011;42744;51.094;3.490;2022-08-04T13:47:29;2.67;;;1.40;;
56860;SDS011;42744;51.094;3.490;2022-08-04T13:52:47;5.55;;;2.10;;
56860;SDS011;42744;51.094;3.490;2022-08-04T13:55:18;8.93;;;1.77;;
56860;SDS011;42744;51.094;3.490;2022-08-04T13:57:44;1.92;;;1.60;;
56860;SDS011;42744;51.094;3.490;2022-08-04T14:00:14;1.92;;;1.40;;
56860;SDS011;42744;51.094;3.490;2022-08-04T14:02:46;3.33;;;1.60;;
56860;SDS011;42744;51.094;3.490;2022-08-04T14:05:23;3.47;;;1.67;;
56860;SDS011;42744;51.094;3.490;2022-08-04T14:07:57;5.78;;;1.60;;
56860;SDS011;42744;51.094;3.490;2022-08-04T14:10:25;10.38;;;2.05;;
56860;SDS011;42744;51.094;3.490;2022-08-04T14:12:52;2.92;;;1.40;;
56860;SDS011;42744;51.094;3.490;2022-08-04T14:18:15;2.05;;;1.35;;
56860;SDS011;42744;51.094;3.490;2022-08-04T14:21:03;5.05;;;1.67;;
56860;SDS011;42744;51.094;3.490;2022-08-04T14:23:37;5.30;;;1.70;;
56860;SDS011;42744;51.094;3.490;2022-08-04T14:26:18;2.90;;;1.60;;
56860;SDS011;42744;51.094;3.490;2022-08-04T14:28:44;3.65;;;1.50;;
56860;SDS011;42744;51.094;3.490;2022-08-04T14:31:12;2.58;;;1.58;;
56860;SDS011;42744;51.094;3.490;2022-08-04T14:33:40;3.80;;;1.62;;
56860;SDS011;42744;51.094;3.490;2022-08-04T14:36:07;3.42;;;1.73;;
56860;SDS011;42744;51.094;3.490;2022-08-04T14:38:56;3.00;;;1.80;;
56860;SDS011;42744;51.094;3.490;2022-08-04T14:41:27;3.10;;;1.83;;
56860;SDS011;42744;51.094;3.490;2022-08-04T14:43:56;4.80;;;1.98;;
56860;SDS011;42744;51.094;3.490;2022-08-04T14:46:24;4.35;;;1.90;;
56860;SDS011;42744;51.094;3.490;2022-08-04T14:48:59;4.45;;;1.92;;
56860;SDS011;42744;51.094;3.490;2022-08-04T14:51:40;3.97;;;2.03;;
56860;SDS011;42744;51.094;3.490;2022-08-04T14:54:09;4.93;;;2.33;;
56860;SDS011;42744;51.094;3.490;2022-08-04T14:56:40;4.72;;;2.20;;
56860;SDS011;42744;51.094;3.490;2022-08-04T14:59:15;3.87;;;2.10;;
56860;SDS011;42744;51.094;3.490;2022-08-04T15:01:41;4.55;;;1.80;;
56860;SDS011;42744;51.094;3.490;2022-08-04T15:04:09;4.37;;;2.00;;
56860;SDS011;42744;51.094;3.490;2022-08-04T15:06:36;5.32;;;2.17;;
56860;SDS011;42744;51.094;3.490;2022-08-04T15:09:04;5.12;;;2.10;;
56860;SDS011;42744;51.094;3.490;2022-08-04T15:11:33;6.35;;;2.47;;
56860;SDS011;42744;51.094;3.490;2022-08-04T15:14:00;3.37;;;2.37;;
56860;SDS011;42744;51.094;3.490;2022-08-04T15:16:29;3.28;;;2.15;;
56860;SDS011;42744;51.094;3.490;2022-08-04T15:18:56;7.97;;;2.83;;
56860;SDS011;42744;51.094;3.490;2022-08-04T15:21:23;5.37;;;2.20;;
56860;SDS011;42744;51.094;3.490;2022-08-04T15:23:52;5.53;;;2.45;;
56860;SDS011;42744;51.094;3.490;2022-08-04T15:26:28;6.93;;;2.42;;
56860;SDS011;42744;51.094;3.490;2022-08-04T15:29:10;3.95;;;2.22;;
56860;SDS011;42744;51.094;3.490;2022-08-04T15:32:01;3.28;;;1.83;;
56860;SDS011;42744;51.094;3.490;2022-08-04T15:34:43;3.83;;;1.75;;
56860;SDS011;42744;51.094;3.490;2022-08-04T15:42:41;3.62;;;1.70;;
56860;SDS011;42744;51.094;3.490;2022-08-04T15:45:16;4.50;;;1.50;;
56860;SDS011;42744;51.094;3.490;2022-08-04T15:50:29;3.83;;;1.60;;
56860;SDS011;42744;51.094;3.490;2022-08-04T15:52:59;4.00;;;1.50;;
56860;SDS011;42744;51.094;3.490;2022-08-04T15:55:31;3.12;;;1.52;;
56860;SDS011;42744;51.094;3.490;2022-08-04T15:58:07;3.45;;;1.75;;
56860;SDS011;42744;51.094;3.490;2022-08-04T16:14:21;4.25;;;1.50;;
56860;SDS011;42744;51.094;3.490;2022-08-04T16:22:30;4.53;;;1.65;;
56860;SDS011;42744;51.094;3.490;2022-08-04T16:25:02;5.18;;;2.05;;
56860;SDS011;42744;51.094;3.490;2022-08-04T16:27:35;5.55;;;1.70;;
56860;SDS011;42744;51.094;3.490;2022-08-04T16:30:03;5.10;;;2.25;;
56860;SDS011;42744;51.094;3.490;2022-08-04T16:32:35;3.08;;;1.62;;
56860;SDS011;42744;51.094;3.490;2022-08-04T16:35:16;1.95;;;1.67;;
56860;SDS011;42744;51.094;3.490;2022-08-04T16:37:54;4.70;;;1.95;;
56860;SDS011;42744;51.094;3.490;2022-08-04T16:40:37;5.45;;;1.90;;
56860;SDS011;42744;51.094;3.490;2022-08-04T16:43:14;7.15;;;1.70;;
56860;SDS011;42744;51.094;3.490;2022-08-04T16:45:47;4.90;;;1.42;;
56860;SDS011;42744;51.094;3.490;2022-08-04T16:48:30;4.28;;;2.03;;
56860;SDS011;42744;51.094;3.490;2022-08-04T16:51:05;4.10;;;1.70;;
56860;SDS011;42744;51.094;3.490;2022-08-04T16:53:40;4.45;;;1.60;;
56860;SDS011;42744;51.094;3.490;2022-08-04T16:56:13;3.30;;;1.75;;
56860;SDS011;42744;51.094;3.490;2022-08-04T16:58:43;3.83;;;1.90;;
56860;SDS011;42744;51.094;3.490;2022-08-04T17:01:12;5.72;;;1.83;;
56860;SDS011;42744;51.094;3.490;2022-08-04T17:03:48;9.70;;;2.40;;
56860;SDS011;42744;51.094;3.490;2022-08-04T17:06:16;3.53;;;1.65;;
56860;SDS011;42744;51.094;3.490;2022-08-04T17:08:43;6.05;;;1.67;;
56860;SDS011;42744;51.094;3.490;2022-08-04T17:11:11;3.75;;;1.83;;
56860;SDS011;42744;51.094;3.490;2022-08-04T17:13:38;4.35;;;1.70;;
56860;SDS011;42744;51.094;3.490;2022-08-04T17:16:07;4.18;;;1.80;;
56860;SDS011;42744;51.094;3.490;2022-08-04T17:18:38;3.45;;;1.52;;
56860;SDS011;42744;51.094;3.490;2022-08-04T17:21:08;5.30;;;2.42;;
56860;SDS011;42744;51.094;3.490;2022-08-04T17:23:39;4.47;;;1.80;;
56860;SDS011;42744;51.094;3.490;2022-08-04T17:26:14;5.75;;;2.00;;
56860;SDS011;42744;51.094;3.490;2022-08-04T17:28:45;4.10;;;1.50;;
56860;SDS011;42744;51.094;3.490;2022-08-04T17:31:13;3.55;;;1.75;;
56860;SDS011;42744;51.094;3.490;2022-08-04T17:33:44;5.95;;;1.62;;
56860;SDS011;42744;51.094;3.490;2022-08-04T17:36:11;5.28;;;1.60;;
56860;SDS011;42744;51.094;3.490;2022-08-04T17:38:39;2.95;;;1.50;;
56860;SDS011;42744;51.094;3.490;2022-08-04T17:41:10;5.12;;;1.50;;
56860;SDS011;42744;51.094;3.490;2022-08-04T17:43:39;3.42;;;1.23;;
56860;SDS011;42744;51.094;3.490;2022-08-04T17:54:31;4.15;;;1.30;;
56860;SDS011;42744;51.094;3.490;2022-08-04T17:56:59;3.47;;;1.58;;
56860;SDS011;42744;51.094;3.490;2022-08-04T18:02:10;2.78;;;1.25;;
56860;SDS011;42744;51.094;3.490;2022-08-04T18:07:13;3.50;;;1.20;;
56860;SDS011;42744;51.094;3.490;2022-08-04T18:09:41;2.53;;;1.20;;
56860;SDS011;42744;51.094;3.490;2022-08-04T18:14:51;3.17;;;1.50;;
56860;SDS011;42744;51.094;3.490;2022-08-04T18:17:32;4.12;;;1.40;;
56860;SDS011;42744;51.094;3.490;2022-08-04T18:20:00;3.12;;;1.50;;
56860;SDS011;42744;51.094;3.490;2022-08-04T18:22:33;2.35;;;1.40;;
56860;SDS011;42744;51.094;3.490;2022-08-04T18:25:00;6.43;;;1.42;;
56860;SDS011;42744;51.094;3.490;2022-08-04T18:27:27;3.00;;;1.40;;
56860;SDS011;42744;51.094;3.490;2022-08-04T18:29:54;1.98;;;1.10;;
56860;SDS011;42744;51.094;3.490;2022-08-04T18:32:20;6.32;;;1.58;;
56860;SDS011;42744;51.094;3.490;2022-08-04T18:34:48;5.60;;;1.45;;
56860;SDS011;42744;51.094;3.490;2022-08-04T18:37:15;2.40;;;1.20;;
56860;SDS011;42744;51.094;3.490;2022-08-04T18:39:47;3.72;;;1.58;;
56860;SDS011;42744;51.094;3.490;2022-08-04T18:42:13;3.90;;;1.12;;
56860;SDS011;42744;51.094;3.490;2022-08-04T18:44:39;2.83;;;1.10;;
56860;SDS011;42744;51.094;3.490;2022-08-04T18:47:05;3.95;;;1.30;;
56860;SDS011;42744;51.094;3.490;2022-08-04T18:49:31;4.12;;;1.33;;
56860;SDS011;42744;51.094;3.490;2022-08-04T18:51:57;4.45;;;1.73;;
56860;SDS011;42744;51.094;3.490;2022-08-04T18:54:24;4.97;;;1.33;;
56860;SDS011;42744;51.094;3.490;2022-08-04T18:56:50;5.62;;;1.85;;
56860;SDS011;42744;51.094;3.490;2022-08-04T18:59:17;2.50;;;1.20;;
56860;SDS011;42744;51.094;3.490;2022-08-04T19:01:45;3.37;;;1.40;;
56860;SDS011;42744;51.094;3.490;2022-08-04T19:04:11;1.83;;;0.98;;
56860;SDS011;42744;51.094;3.490;2022-08-04T19:06:38;2.22;;;1.10;;
56860;SDS011;42744;51.094;3.490;2022-08-04T19:09:06;2.67;;;1.25;;
56860;SDS011;42744;51.094;3.490;2022-08-04T19:11:32;2.80;;;1.25;;
56860;SDS011;42744;51.094;3.490;2022-08-04T19:13:59;2.05;;;1.10;;
56860;SDS011;42744;51.094;3.490;2022-08-04T19:16:26;3.60;;;1.48;;
56860;SDS011;42744;51.094;3.490;2022-08-04T19:18:53;5.80;;;1.58;;
56860;SDS011;42744;51.094;3.490;2022-08-04T19:21:19;5.97;;;1.48;;
56860;SDS011;42744;51.094;3.490;2022-08-04T19:23:45;2.17;;;1.20;;
56860;SDS011;42744;51.094;3.490;2022-08-04T19:26:11;2.75;;;1.23;;
56860;SDS011;42744;51.094;3.490;2022-08-04T19:28:37;3.53;;;1.67;;
56860;SDS011;42744;51.094;3.490;2022-08-04T19:31:04;5.55;;;1.77;;
56860;SDS011;42744;51.094;3.490;2022-08-04T19:33:32;2.92;;;1.40;;
56860;SDS011;42744;51.094;3.490;2022-08-04T19:35:58;5.43;;;1.30;;
56860;SDS011;42744;51.094;3.490;2022-08-04T19:38:24;8.98;;;1.58;;
56860;SDS011;42744;51.094;3.490;2022-08-04T19:40:51;4.65;;;1.60;;
56860;SDS011;42744;51.094;3.490;2022-08-04T19:43:17;3.12;;;1.10;;
56860;SDS011;42744;51.094;3.490;2022-08-04T19:45:45;3.53;;;1.60;;
56860;SDS011;42744;51.094;3.490;2022-08-04T19:48:11;4.53;;;1.27;;
56860;SDS011;42744;51.094;3.490;2022-08-04T19:50:37;2.92;;;1.52;;
56860;SDS011;42744;51.094;3.490;2022-08-04T19:53:04;7.18;;;1.27;;
56860;SDS011;42744;51.094;3.490;2022-08-04T19:55:30;2.90;;;1.30;;
56860;SDS011;42744;51.094;3.490;2022-08-04T19:58:02;4.32;;;1.30;;
56860;SDS011;42744;51.094;3.490;2022-08-04T20:00:30;2.75;;;1.27;;
56860;SDS011;42744;51.094;3.490;2022-08-04T20:02:56;5.10;;;1.35;;
56860;SDS011;42744;51.094;3.490;2022-08-04T20:05:23;6.07;;;1.50;;
56860;SDS011;42744;51.094;3.490;2022-08-04T20:07:50;6.50;;;1.48;;
56860;SDS011;42744;51.094;3.490;2022-08-04T20:10:16;4.80;;;1.83;;
56860;SDS011;42744;51.094;3.490;2022-08-04T20:12:42;4.93;;;1.50;;
56860;SDS011;42744;51.094;3.490;2022-08-04T20:15:08;2.35;;;1.50;;
56860;SDS011;42744;51.094;3.490;2022-08-04T20:17:35;4.28;;;1.30;;
56860;SDS011;42744;51.094;3.490;2022-08-04T20:20:02;5.30;;;1.55;;
56860;SDS011;42744;51.094;3.490;2022-08-04T20:22:29;3.08;;;1.60;;
56860;SDS011;42744;51.094;3.490;2022-08-04T20:24:55;4.60;;;2.03;;
56860;SDS011;42744;51.094;3.490;2022-08-04T20:27:22;3.12;;;1.55;;
56860;SDS011;42744;51.094;3.490;2022-08-04T20:29:49;5.72;;;1.75;;
56860;SDS011;42744;51.094;3.490;2022-08-04T20:32:17;3.17;;;1.62;;
56860;SDS011;42744;51.094;3.490;2022-08-04T20:34:45;5.32;;;1.65;;
56860;SDS011;42744;51.094;3.490;2022-08-04T20:37:12;8.07;;;1.98;;
56860;SDS011;42744;51.094;3.490;2022-08-04T20:39:38;5.20;;;1.77;;
56860;SDS011;42744;51.094;3.490;2022-08-04T20:42:05;3.40;;;1.60;;
56860;SDS011;42744;51.094;3.490;2022-08-04T20:44:31;9.68;;;1.77;;
56860;SDS011;42744;51.094;3.490;2022-08-04T20:46:57;4.87;;;1.75;;
56860;SDS011;42744;51.094;3.490;2022-08-04T20:49:23;4.65;;;1.80;;